The Farmers Guide 72-hour weather forecast

Enter Postcode:

Scattered Showers

(06:00)

8.9°C

IP2 0SS

Wind Soil
Date Time Weather Temp Rain Humid Cloud Press (mph) Temp Moist
20/04 06:00 8.9°C 0.5mm 98% 43% 1009mb 12ne (44 degrees) n/a 0.2%
09:00 11.7°C 0.5mm 91% 84% 1008mb 15nee (61 degrees) n/a 0.2%
12:00 12.7°C 1.8mm 89% 91% 1006mb 15nee (64 degrees) n/a 0.2%
15:00 15.4°C 0.5mm 75% 52% 1005mb 18nee (78 degrees) n/a 0.2%
18:00 12.5°C 2.3mm 93% 72% 1004mb 11e (85 degrees) n/a 0.2%
21:00 11.1°C 1.4mm 97% 100% 1005mb 5e (92 degrees) n/a 0.2%
21/04 00:00 9.5°C 1.4mm 96% 95% 1006mb 4nee (72 degrees) n/a 0.2%
03:00 9.5°C 0.0mm 95% 52% 1005mb 5nee (71 degrees) n/a 0.2%
06:00 10.5°C 0.0mm 94% 33% 1006mb 6nee (62 degrees) n/a 0.2%
09:00 14.3°C 0.0mm 80% 0% 1007mb 10nee (71 degrees) n/a 0.2%
12:00 16.5°C 0.0mm 64% 4% 1007mb 12nee (76 degrees) n/a 0.2%
15:00 15.8°C 0.0mm 70% 76% 1007mb 12nee (64 degrees) n/a 0.2%
18:00 12.6°C 0.0mm 83% 85% 1006mb 8ne (37 degrees) n/a 0.2%
21:00 8.8°C 0.0mm 95% 53% 1008mb 8nne (20 degrees) n/a 0.2%
22/04 00:00 8.0°C 0.0mm 99% 33% 1007mb 7n (1 degrees) n/a 0.2%
03:00 9.3°C 0.0mm 95% 72% 1007mb 6nnw (347 degrees) n/a 0.2%
06:00 9.9°C 0.0mm 94% 75% 1008mb 7nnw (339 degrees) n/a 0.2%
09:00 12.1°C 0.0mm 84% 90% 1008mb 6nnw (329 degrees) n/a 0.2%
12:00 14.5°C 0.5mm 77% 88% 1009mb 4w (266 degrees) n/a 0.2%
15:00 15.3°C 1.7mm 76% 92% 1009mb 6sw (227 degrees) n/a 0.2%
18:00 13.5°C 3.1mm 86% 84% 1010mb 6sw (223 degrees) n/a 0.2%
21:00 10.3°C 0.0mm 95% 33% 1012mb 7sw (218 degrees) n/a 0.2%
23/04 00:00 9.1°C 0.0mm 97% 18% 1013mb 6ssw (209 degrees) n/a 0.2%
03:00 8.2°C 0.0mm 97% 6% 1013mb 6ssw (200 degrees) n/a 0.2%
The Farmers Guide weather forecast is a free service for users of this website.
 
We now carry forecasts based on postcodes. Just enter your postcode and the weather page will display the forecast for the following 72 hours, broken down into three-hour intervals.
 
The forecast data provided for each three-hour period includes: a general graphic showing the likely weather conditions; average temperatures for the period; cloud cover; barometric pressure; wind speed and direction; humidity; and rainfall.
 
An indication of the likely soil temperature and soil moisture will also be displayed for most postcodes, although this data is not available for every area.
 
We hope you will find this service useful and would welcome any feedback from you.
 
 

Search

Read our classified section online

 
 
March
2014
April
2014
 

Advertisments